Time;durP1;ratioP1;P1;durP2;ratioP2;P2;SDS_P1;SDS_P2;PMS_P1;PMS_P2;Temp;Humidity;BMP_temperature;BMP_pressure;BME280_temperature;BME280_humidity;BME280_pressure;Samples;Min_cycle;Max_cycle;Signal;HPM_P1;HPM_P2
2022/09/24 00:01:24;;;;;;;;;;;12.90;99.90;;;;;;6171230;23;19927;-95
2022/09/24 00:03:53;;;;;;;;;;;12.90;99.90;;;;;;6171235;23;19916;-95
2022/09/24 00:06:20;;;;;;;;;;;12.90;99.90;;;;;;6172097;23;19920;-95
2022/09/24 00:08:47;;;;;;;;;;;12.90;99.90;;;;;;6147374;23;19922;-96
2022/09/24 00:11:12;;;;;;;;;;;12.90;99.90;;;;;;6173036;23;19923;-96
2022/09/24 00:13:39;;;;;;;;;;;12.90;99.90;;;;;;6171638;23;19916;-95
2022/09/24 00:16:12;;;;;;;;;;;12.80;99.90;;;;;;6173196;23;19926;-95
2022/09/24 00:18:41;;;;;;;;;;;12.80;99.90;;;;;;6173314;23;19956;-95
2022/09/24 00:21:27;;;;;;;;;;;12.80;99.90;;;;;;6172888;23;19924;-96
2022/09/24 00:23:54;;;;;;;;;;;12.80;99.90;;;;;;6173921;23;19972;-95
2022/09/24 00:29:06;;;;;;;;;;;12.80;99.90;;;;;;6179327;23;19956;-95
2022/09/24 00:31:32;;;;;;;;;;;12.80;99.90;;;;;;6178206;23;19944;-94
2022/09/24 00:34:00;;;;;;;;;;;12.80;99.90;;;;;;6179704;23;19916;-95
2022/09/24 00:36:28;;;;;;;;;;;12.80;99.90;;;;;;6206604;23;19917;-95
2022/09/24 00:38:56;;;;;;;;;;;12.80;99.90;;;;;;6183545;23;19920;-96
2022/09/24 00:41:23;;;;;;;;;;;12.80;99.90;;;;;;6179017;23;19944;-96
2022/09/24 00:43:49;;;;;;;;;;;12.80;99.90;;;;;;6178169;23;20342;-96
2022/09/24 00:46:24;;;;;;;;;;;12.80;99.90;;;;;;6200999;23;19920;-96
2022/09/24 00:49:04;;;;;;;;;;;12.80;99.90;;;;;;6183846;23;19956;-96
2022/09/24 00:51:31;;;;;;;;;;;12.80;99.90;;;;;;6182795;23;19947;-95
2022/09/24 00:53:59;;;;;;;;;;;12.80;99.90;;;;;;6161996;23;19912;-95
2022/09/24 00:56:25;;;;;;;;;;;12.80;99.90;;;;;;6184875;23;19935;-95
2022/09/24 00:58:53;;;;;;;;;;;12.80;99.90;;;;;;6186491;23;19912;-94
2022/09/24 01:01:21;;;;;;;;;;;12.80;99.90;;;;;;6204640;23;19944;-94
2022/09/24 01:03:48;;;;;;;;;;;12.80;99.90;;;;;;6179912;23;19912;-96
2022/09/24 01:06:13;;;;;;;;;;;12.80;99.90;;;;;;6160835;23;19912;-95
2022/09/24 01:08:39;;;;;;;;;;;12.80;99.90;;;;;;6185778;23;19922;-96
2022/09/24 01:11:24;;;;;;;;;;;12.80;99.90;;;;;;6186125;23;19919;-94
2022/09/24 01:13:58;;;;;;;;;;;12.80;99.90;;;;;;6185471;23;19912;-95
2022/09/24 01:16:24;;;;;;;;;;;12.80;99.90;;;;;;6210109;23;19912;-95
2022/09/24 01:18:56;;;;;;;;;;;12.80;99.90;;;;;;6185545;23;19923;-95
2022/09/24 01:21:34;;;;;;;;;;;12.80;99.90;;;;;;6210593;23;19920;-94
2022/09/24 01:24:16;;;;;;;;;;;12.80;99.90;;;;;;6185337;23;19912;-95
2022/09/24 01:26:50;;;;;;;;;;;12.90;99.90;;;;;;6184509;23;19969;-95
2022/09/24 01:29:20;;;;;;;;;;;12.90;99.90;;;;;;6186166;23;19912;-95
2022/09/24 01:31:55;;;;;;;;;;;12.90;99.90;;;;;;6179581;23;19948;-95
2022/09/24 01:34:25;;;;;;;;;;;12.80;99.90;;;;;;6173966;23;20265;-96
2022/09/24 01:36:52;;;;;;;;;;;12.80;99.90;;;;;;6175329;23;19923;-96
2022/09/24 01:39:19;;;;;;;;;;;12.80;99.90;;;;;;6173265;23;19922;-95
2022/09/24 01:41:46;;;;;;;;;;;12.90;99.90;;;;;;6174397;23;19955;-96
2022/09/24 01:44:17;;;;;;;;;;;12.90;99.90;;;;;;6175675;23;19923;-96
2022/09/24 01:46:49;;;;;;;;;;;12.90;99.90;;;;;;6175533;23;19923;-94
2022/09/24 01:49:15;;;;;;;;;;;12.90;99.90;;;;;;6174716;23;19920;-95
2022/09/24 01:51:47;;;;;;;;;;;12.90;99.90;;;;;;6150624;23;19916;-95
2022/09/24 01:54:19;;;;;;;;;;;12.90;99.90;;;;;;6200213;23;19956;-95
2022/09/24 01:56:54;;;;;;;;;;;12.90;99.90;;;;;;6198857;23;19923;-94
2022/09/24 01:59:27;;;;;;;;;;;12.90;99.90;;;;;;6171403;23;19922;-95
2022/09/24 02:01:59;;;;;;;;;;;12.90;99.90;;;;;;6163389;23;20479;-95
2022/09/24 02:04:27;;;;;;;;;;;12.90;99.90;;;;;;6205833;23;20313;-94
2022/09/24 02:06:55;;;;;;;;;;;12.90;99.90;;;;;;6174363;23;19955;-94
2022/09/24 02:09:34;;;;;;;;;;;12.90;99.90;;;;;;6174974;23;19923;-94
2022/09/24 02:12:14;;;;;;;;;;;13.00;99.90;;;;;;6183205;23;19939;-95
2022/09/24 02:14:45;;;;;;;;;;;13.00;99.90;;;;;;6209177;23;19950;-95
2022/09/24 02:17:13;;;;;;;;;;;13.00;99.90;;;;;;6184922;23;19913;-94
2022/09/24 02:19:42;;;;;;;;;;;13.00;99.90;;;;;;6155972;23;19920;-95
2022/09/24 02:22:09;;;;;;;;;;;13.00;99.90;;;;;;6197914;23;19916;-95
2022/09/24 02:24:39;;;;;;;;;;;13.00;99.90;;;;;;6152933;23;19916;-95
2022/09/24 02:27:05;;;;;;;;;;;13.00;99.90;;;;;;6173254;23;19948;-95
2022/09/24 02:29:30;;;;;;;;;;;13.00;99.90;;;;;;6198675;23;19916;-96
2022/09/24 02:31:58;;;;;;;;;;;13.00;99.90;;;;;;6175052;23;19939;-96
2022/09/24 02:34:32;;;;;;;;;;;13.00;99.90;;;;;;6200819;23;19916;-96
2022/09/24 02:37:09;;;;;;;;;;;13.00;99.90;;;;;;6176738;23;19916;-95
2022/09/24 02:40:07;;;;;;;;;;;13.00;99.90;;;;;;6179088;23;19916;-96
2022/09/24 02:42:36;;;;;;;;;;;12.90;99.90;;;;;;6204725;23;19961;-95
2022/09/24 02:45:04;;;;;;;;;;;12.90;99.90;;;;;;6197643;23;19917;-96
2022/09/24 02:47:30;;;;;;;;;;;12.90;99.90;;;;;;6172801;23;19920;-95
2022/09/24 02:49:56;;;;;;;;;;;12.90;99.90;;;;;;6172727;23;19948;-95
2022/09/24 02:52:22;;;;;;;;;;;12.90;99.90;;;;;;6198533;23;19916;-95
2022/09/24 02:54:49;;;;;;;;;;;12.90;99.90;;;;;;6172512;23;20346;-94
2022/09/24 02:57:16;;;;;;;;;;;12.90;99.90;;;;;;6172801;23;19972;-95
2022/09/24 02:59:42;;;;;;;;;;;12.90;99.90;;;;;;6176796;23;19916;-95
2022/09/24 03:02:09;;;;;;;;;;;12.90;99.90;;;;;;6176922;23;19946;-95
2022/09/24 03:04:54;;;;;;;;;;;12.90;99.90;;;;;;6208703;23;19916;-96
2022/09/24 03:09:58;;;;;;;;;;;13.00;99.90;;;;;;6168251;23;19920;-94
2022/09/24 03:12:24;;;;;;;;;;;13.00;99.90;;;;;;6096121;23;19992;-93
2022/09/24 03:14:52;;;;;;;;;;;13.00;99.90;;;;;;6145776;23;20335;-95
2022/09/24 03:17:18;;;;;;;;;;;13.00;99.90;;;;;;6095705;23;19917;-94
2022/09/24 03:19:44;;;;;;;;;;;13.00;99.90;;;;;;6095996;23;19912;-94
2022/09/24 03:22:09;;;;;;;;;;;13.00;99.90;;;;;;6096531;23;19917;-95
2022/09/24 03:24:35;;;;;;;;;;;13.00;99.90;;;;;;6095431;23;19924;-94
2022/09/24 03:27:01;;;;;;;;;;;13.00;99.90;;;;;;6120230;23;19916;-96
2022/09/24 03:32:11;;;;;;;;;;;13.00;99.90;;;;;;6122866;23;19917;-94
2022/09/24 03:34:36;;;;;;;;;;;13.00;99.90;;;;;;6097000;23;19917;-94
2022/09/24 03:37:08;;;;;;;;;;;13.00;99.90;;;;;;6097480;23;19923;-94
2022/09/24 03:39:35;;;;;;;;;;;13.00;99.90;;;;;;6121055;23;19917;-95
2022/09/24 03:42:01;;;;;;;;;;;13.00;99.90;;;;;;6119756;23;19960;-96
2022/09/24 03:44:27;;;;;;;;;;;12.90;99.90;;;;;;6096460;23;19916;-94
2022/09/24 03:46:53;;;;;;;;;;;13.00;99.90;;;;;;6118804;23;19917;-94
2022/09/24 03:49:22;;;;;;;;;;;13.00;99.90;;;;;;6122269;23;19916;-96
2022/09/24 03:51:49;;;;;;;;;;;13.00;99.90;;;;;;6098218;23;19920;-96
2022/09/24 03:54:15;;;;;;;;;;;13.00;99.90;;;;;;6121254;23;20351;-94
2022/09/24 03:56:41;;;;;;;;;;;13.00;99.90;;;;;;6098111;23;19921;-96
2022/09/24 03:59:09;;;;;;;;;;;13.00;99.90;;;;;;6129731;23;19916;-96
2022/09/24 04:01:40;;;;;;;;;;;13.00;99.90;;;;;;6136416;23;19912;-96
2022/09/24 04:04:06;;;;;;;;;;;13.00;99.90;;;;;;6110709;23;19913;-95
2022/09/24 04:06:31;;;;;;;;;;;13.00;99.90;;;;;;6128985;23;19916;-96
2022/09/24 04:08:58;;;;;;;;;;;13.00;99.90;;;;;;6103428;23;19916;-96
2022/09/24 04:11:24;;;;;;;;;;;13.00;99.90;;;;;;6124467;23;20187;-96
2022/09/24 04:13:51;;;;;;;;;;;13.00;99.90;;;;;;6144777;23;19924;-96
2022/09/24 04:16:16;;;;;;;;;;;13.00;99.90;;;;;;6095647;23;19920;-95
2022/09/24 04:18:42;;;;;;;;;;;13.00;99.90;;;;;;6121602;23;19923;-94
2022/09/24 04:21:08;;;;;;;;;;;13.00;99.90;;;;;;6120463;23;19921;-95
2022/09/24 04:23:34;;;;;;;;;;;13.00;99.90;;;;;;6146125;23;19923;-94
2022/09/24 04:26:05;;;;;;;;;;;13.00;99.90;;;;;;6099650;23;19923;-95
2022/09/24 04:28:31;;;;;;;;;;;13.00;99.90;;;;;;6101331;23;19916;-96
2022/09/24 04:31:00;;;;;;;;;;;13.00;99.90;;;;;;6149265;23;19916;-96
2022/09/24 04:33:25;;;;;;;;;;;13.00;99.90;;;;;;6100057;23;19944;-96
2022/09/24 04:35:51;;;;;;;;;;;13.00;99.90;;;;;;6121417;23;19917;-95
2022/09/24 04:38:28;;;;;;;;;;;13.00;99.90;;;;;;6099661;23;19955;-95
2022/09/24 04:41:03;;;;;;;;;;;13.00;99.90;;;;;;6122081;23;19923;-96
2022/09/24 04:43:47;;;;;;;;;;;13.00;99.90;;;;;;6147987;23;20386;-96
2022/09/24 04:46:13;;;;;;;;;;;13.00;99.90;;;;;;6139767;23;19916;-96
2022/09/24 04:48:42;;;;;;;;;;;13.00;99.90;;;;;;6155065;23;19936;-94
2022/09/24 04:51:08;;;;;;;;;;;13.00;99.90;;;;;;6123220;23;19920;-96
2022/09/24 04:53:35;;;;;;;;;;;13.00;99.90;;;;;;6122153;23;19947;-96
2022/09/24 04:56:06;;;;;;;;;;;13.00;99.90;;;;;;6120275;23;19923;-95
2022/09/24 04:58:32;;;;;;;;;;;13.00;99.90;;;;;;6119294;23;19948;-94
2022/09/24 05:01:01;;;;;;;;;;;13.00;99.90;;;;;;6147053;23;19931;-96
2022/09/24 05:03:27;;;;;;;;;;;13.00;99.90;;;;;;6151072;23;20064;-96
2022/09/24 05:05:59;;;;;;;;;;;13.00;99.90;;;;;;6129547;23;19924;-96
2022/09/24 05:08:25;;;;;;;;;;;13.00;99.90;;;;;;6130744;23;19949;-96
2022/09/24 05:14:09;;;;;;;;;;;13.00;99.90;;;;;;6154815;23;19951;-92
2022/09/24 05:16:45;;;;;;;;;;;13.00;99.90;;;;;;6158883;23;19966;-92
2022/09/24 05:19:44;;;;;;;;;;;13.00;99.90;;;;;;6136440;23;20246;-92
2022/09/24 05:29:11;;;;;;;;;;;;;;;;;;;;;
2022/09/24 05:32:01;;;;;;;;;;;13.00;99.90;;;;;;6159049;23;19987;-94
2022/09/24 05:37:54;;;;;;;;;;;;;;;;;;;;;
2022/09/24 05:43:58;;;;;;;;;;;;;;;;;;;;;
2022/09/24 05:46:54;;;;;;;;;;;12.60;99.90;;;;;;6179069;23;19924;-95
2022/09/24 06:06:05;;;;;;;;;;;;;;;;;;;;;
2022/09/24 06:12:09;;;;;;;;;;;12.60;99.90;;;;;;5993129;23;19925;-94
2022/09/24 06:18:23;;;;;;;;;;;13.00;99.90;;;;;;5870625;24;19927;-94
2022/09/24 06:21:21;;;;;;;;;;;13.20;99.90;;;;;;5844233;24;19920;-93
2022/09/24 06:27:14;;;;;;;;;;;;;;;;;;;;;
2022/09/24 06:33:39;;;;;;;;;;;13.10;99.90;;;;;;6121162;23;19924;-94
2022/09/24 06:36:27;;;;;;;;;;;13.10;99.90;;;;;;6106875;23;20255;-94
2022/09/24 06:39:46;;;;;;;;;;;;;;;;;;;;;
2022/09/24 06:45:57;;;;;;;;;;;;;;;;;;;;;
2022/09/24 06:48:56;;;;;;;;;;;;;;;;;;;;;
2022/09/24 06:52:10;;;;;;;;;;;;;;;;;;;;;
2022/09/24 06:58:12;;;;;;;;;;;13.20;99.90;;;;;;6147154;23;19999;-94
2022/09/24 07:01:37;;;;;;;;;;;;;;;;;;;;;
2022/09/24 07:07:47;;;;;;;;;;;;;;;;;;;;;
2022/09/24 07:14:20;;;;;;;;;;;;;;;;;;;;;
2022/09/24 07:17:12;;;;;;;;;;;13.30;99.90;;;;;;6035363;23;19918;-94
2022/09/24 07:23:27;;;;;;;;;;;;;;;;;;;;;
2022/09/24 07:26:43;;;;;;;;;;;13.30;99.90;;;;;;5959093;24;20002;-94
2022/09/24 07:30:05;;;;;;;;;;;13.60;99.90;;;;;;5982847;24;20021;-95
2022/09/24 07:42:44;;;;;;;;;;;;;;;;;;;;;
2022/09/24 07:59:28;;;;;;;;;;;;;;;;;;;;;
2022/09/24 08:02:45;;;;;;;;;;;13.80;99.90;;;;;;6041355;23;19993;-92
2022/09/24 08:26:02;;;;;;;;;;;13.90;99.90;;;;;;6053398;23;19921;-94
2022/09/24 08:39:42;;;;;;;;;;;;;;;;;;;;;
2022/09/24 08:42:55;;;;;;;;;;;;;;;;;;;;;
2022/09/24 08:49:25;;;;;;;;;;;;;;;;;;;;;
2022/09/24 09:14:33;;;;;;;;;;;;;;;;;;;;;
2022/09/24 09:24:02;;;;;;;;;;;14.20;99.90;;;;;;5092867;27;2898865;-96
2022/09/24 09:26:28;;;;;;;;;;;14.50;99.90;;;;;;5161796;27;19934;-95
2022/09/24 09:28:57;;;;;;;;;;;14.40;99.90;;;;;;5145983;27;19907;-96
2022/09/24 09:31:30;;;;;;;;;;;14.40;99.90;;;;;;5172305;27;19972;-96
2022/09/24 09:34:15;;;;;;;;;;;14.40;99.90;;;;;;5158542;27;19919;-96
2022/09/24 09:37:05;;;;;;;;;;;14.40;99.90;;;;;;5142467;27;19950;-96
2022/09/24 09:42:08;;;;;;;;;;;14.60;99.90;;;;;;5142624;22;19924;-95
2022/09/24 09:44:40;;;;;;;;;;;14.40;99.90;;;;;;5101614;28;19920;-96
2022/09/24 09:47:23;;;;;;;;;;;14.60;99.90;;;;;;5089795;27;19920;-96
2022/09/24 09:49:52;;;;;;;;;;;14.60;99.90;;;;;;5087590;28;19924;-96
2022/09/24 09:52:28;;;;;;;;;;;14.60;99.90;;;;;;5081327;28;19931;-96
2022/09/24 09:54:53;;;;;;;;;;;14.50;99.90;;;;;;5094692;28;19924;-95
2022/09/24 09:57:21;;;;;;;;;;;14.50;99.90;;;;;;5104080;28;20322;-96
2022/09/24 09:59:54;;;;;;;;;;;14.50;99.90;;;;;;5091128;28;19935;-96
2022/09/24 10:02:25;;;;;;;;;;;14.40;99.90;;;;;;5093923;28;19924;-96
2022/09/24 10:04:52;;;;;;;;;;;14.40;99.90;;;;;;5094795;28;19999;-95
2022/09/24 10:07:18;;;;;;;;;;;14.40;99.90;;;;;;5088263;28;19920;-96
2022/09/24 10:09:45;;;;;;;;;;;14.40;99.90;;;;;;5110029;28;19951;-95
2022/09/24 10:12:14;;;;;;;;;;;14.40;99.90;;;;;;5078853;28;19942;-95
2022/09/24 10:14:41;;;;;;;;;;;14.50;99.90;;;;;;5077963;28;19956;-96
2022/09/24 10:17:12;;;;;;;;;;;14.60;99.90;;;;;;5090171;28;19924;-95
2022/09/24 10:19:42;;;;;;;;;;;14.70;99.90;;;;;;5095003;28;19920;-96
2022/09/24 10:22:10;;;;;;;;;;;14.70;99.90;;;;;;5113545;28;19966;-95
2022/09/24 10:24:37;;;;;;;;;;;14.80;99.90;;;;;;5089980;28;19927;-96
2022/09/24 10:27:10;;;;;;;;;;;14.80;99.90;;;;;;5097000;28;19924;-95
2022/09/24 10:32:35;;;;;;;;;;;14.90;99.90;;;;;;5107101;28;19924;-96
2022/09/24 10:35:18;;;;;;;;;;;14.90;99.90;;;;;;5074205;28;19979;-96
2022/09/24 10:37:51;;;;;;;;;;;14.90;99.90;;;;;;5089787;28;19935;-95
2022/09/24 10:40:22;;;;;;;;;;;14.90;99.90;;;;;;5077662;28;19920;-96
2022/09/24 10:42:54;;;;;;;;;;;15.00;99.90;;;;;;5085354;28;19930;-96
2022/09/24 10:45:20;;;;;;;;;;;15.20;99.90;;;;;;5075353;28;19928;-96
2022/09/24 10:47:51;;;;;;;;;;;14.90;99.90;;;;;;5062464;28;20070;-96
2022/09/24 10:50:29;;;;;;;;;;;14.90;99.90;;;;;;5089495;28;19924;-96
2022/09/24 10:53:29;;;;;;;;;;;14.90;99.90;;;;;;5097180;28;19943;-96
2022/09/24 10:56:17;;;;;;;;;;;14.90;99.90;;;;;;5048293;28;19931;-96
2022/09/24 10:59:02;;;;;;;;;;;14.90;99.90;;;;;;5092781;28;19981;-96
2022/09/24 11:01:46;;;;;;;;;;;14.90;99.90;;;;;;5074251;28;20234;-96
2022/09/24 11:04:31;;;;;;;;;;;14.90;99.90;;;;;;5070537;28;20395;-95
2022/09/24 11:07:16;;;;;;;;;;;14.90;99.90;;;;;;5071642;28;19970;-96
2022/09/24 11:09:58;;;;;;;;;;;14.90;99.90;;;;;;5087152;28;19924;-96
2022/09/24 11:12:44;;;;;;;;;;;15.00;99.90;;;;;;5089745;28;19924;-96
2022/09/24 11:15:28;;;;;;;;;;;15.00;99.90;;;;;;5068763;28;19925;-96
2022/09/24 11:18:08;;;;;;;;;;;15.00;99.90;;;;;;5085994;28;19924;-95
2022/09/24 11:20:38;;;;;;;;;;;14.80;99.90;;;;;;5090883;28;19967;-96
2022/09/24 11:23:03;;;;;;;;;;;15.00;99.90;;;;;;5106785;28;19924;-96
2022/09/24 11:25:48;;;;;;;;;;;14.90;99.90;;;;;;5069613;28;19929;-95
2022/09/24 11:28:13;;;;;;;;;;;14.90;99.90;;;;;;5058634;28;19931;-95
2022/09/24 11:30:46;;;;;;;;;;;14.80;99.90;;;;;;5068501;28;19928;-94
2022/09/24 11:33:38;;;;;;;;;;;14.80;99.90;;;;;;5083133;28;20269;-95
2022/09/24 11:36:14;;;;;;;;;;;14.70;99.90;;;;;;5069109;28;19983;-96
2022/09/24 11:38:39;;;;;;;;;;;14.70;99.90;;;;;;5064361;28;20007;-94
2022/09/24 11:41:23;;;;;;;;;;;14.70;99.90;;;;;;5089516;28;19924;-96
2022/09/24 11:43:48;;;;;;;;;;;14.60;99.90;;;;;;5067111;28;19931;-96
2022/09/24 11:46:14;;;;;;;;;;;14.50;99.90;;;;;;5090495;28;19969;-96
2022/09/24 11:49:16;;;;;;;;;;;14.40;99.90;;;;;;5095387;22;19920;-92
2022/09/24 11:51:41;;;;;;;;;;;14.40;99.90;;;;;;5022401;28;19925;-95
2022/09/24 11:54:10;;;;;;;;;;;14.30;99.90;;;;;;5069811;28;19924;-94
2022/09/24 11:56:39;;;;;;;;;;;14.30;99.90;;;;;;5083334;28;19924;-94
2022/09/24 11:59:10;;;;;;;;;;;14.30;99.90;;;;;;5101277;28;19973;-95
2022/09/24 12:01:39;;;;;;;;;;;14.30;99.90;;;;;;5094120;28;19931;-93
2022/09/24 12:04:10;;;;;;;;;;;14.30;99.90;;;;;;5100246;28;19922;-96
2022/09/24 12:06:38;;;;;;;;;;;14.20;99.90;;;;;;5100904;28;19975;-94
2022/09/24 12:09:16;;;;;;;;;;;14.20;99.90;;;;;;5084607;28;19946;-93
2022/09/24 12:11:48;;;;;;;;;;;14.20;99.90;;;;;;5080026;28;19947;-95
2022/09/24 12:14:25;;;;;;;;;;;14.20;99.90;;;;;;5088558;28;19924;-93
2022/09/24 12:16:58;;;;;;;;;;;14.20;99.90;;;;;;5106231;28;20410;-93
2022/09/24 12:19:35;;;;;;;;;;;14.20;99.90;;;;;;5107595;28;19924;-92
2022/09/24 12:22:02;;;;;;;;;;;14.20;99.90;;;;;;5102543;28;19994;-96
2022/09/24 12:24:37;;;;;;;;;;;14.40;99.90;;;;;;5077630;28;19924;-96
2022/09/24 12:27:07;;;;;;;;;;;14.30;99.90;;;;;;5075547;28;19984;-94
2022/09/24 12:32:56;;;;;;;;;;;14.30;99.90;;;;;;5042881;28;20277;-93
2022/09/24 12:35:37;;;;;;;;;;;14.40;99.90;;;;;;5092589;28;19924;-95
2022/09/24 12:38:03;;;;;;;;;;;14.40;99.90;;;;;;5099096;28;19924;-92
2022/09/24 12:40:34;;;;;;;;;;;14.50;99.90;;;;;;5103128;28;19974;-92
2022/09/24 12:43:02;;;;;;;;;;;14.50;99.90;;;;;;5083467;28;19923;-93
2022/09/24 12:45:28;;;;;;;;;;;14.50;99.90;;;;;;5107411;28;19924;-93
2022/09/24 12:47:58;;;;;;;;;;;14.50;99.90;;;;;;5061900;28;19935;-92
2022/09/24 12:50:26;;;;;;;;;;;14.50;99.90;;;;;;5069731;28;19924;-93
2022/09/24 12:52:52;;;;;;;;;;;14.60;99.90;;;;;;5073047;28;19924;-91
2022/09/24 12:55:25;;;;;;;;;;;14.60;99.90;;;;;;5080708;28;19955;-93
2022/09/24 12:57:55;;;;;;;;;;;14.60;99.90;;;;;;5076180;28;19924;-95
2022/09/24 13:00:36;;;;;;;;;;;14.60;99.90;;;;;;5076001;28;19931;-93
2022/09/24 13:03:04;;;;;;;;;;;14.50;99.90;;;;;;5074577;28;19945;-94
2022/09/24 13:05:45;;;;;;;;;;;14.50;99.90;;;;;;5067183;28;19924;-93
2022/09/24 13:08:10;;;;;;;;;;;14.60;99.90;;;;;;5090847;28;19931;-93
2022/09/24 13:10:36;;;;;;;;;;;14.60;99.90;;;;;;5096570;28;20421;-92
2022/09/24 13:13:14;;;;;;;;;;;14.60;99.90;;;;;;5093239;28;19924;-94
2022/09/24 13:15:41;;;;;;;;;;;14.60;99.90;;;;;;5069111;28;19979;-94
2022/09/24 13:18:09;;;;;;;;;;;14.50;99.90;;;;;;5091810;28;19935;-95
2022/09/24 13:20:40;;;;;;;;;;;14.40;99.90;;;;;;5081827;28;19924;-94
2022/09/24 13:23:21;;;;;;;;;;;14.40;99.90;;;;;;5070203;28;20012;-94
2022/09/24 13:26:13;;;;;;;;;;;14.40;99.90;;;;;;5077861;28;19986;-95
2022/09/24 13:28:50;;;;;;;;;;;14.40;99.90;;;;;;5074570;28;19932;-95
2022/09/24 13:31:27;;;;;;;;;;;14.50;99.90;;;;;;5103411;28;19920;-94
2022/09/24 13:33:53;;;;;;;;;;;14.50;99.90;;;;;;5104255;28;20010;-95
2022/09/24 13:36:22;;;;;;;;;;;14.50;99.90;;;;;;5095066;28;20403;-95
2022/09/24 13:38:56;;;;;;;;;;;14.60;99.90;;;;;;5113154;28;19923;-95
2022/09/24 13:41:44;;;;;;;;;;;14.50;99.90;;;;;;5250675;22;19967;-95
2022/09/24 13:44:14;;;;;;;;;;;14.70;99.90;;;;;;5039192;28;19933;-96
2022/09/24 13:46:42;;;;;;;;;;;14.60;99.90;;;;;;5031345;28;19932;-96
2022/09/24 13:49:11;;;;;;;;;;;14.40;99.90;;;;;;5027138;28;19936;-95
2022/09/24 13:51:37;;;;;;;;;;;14.40;99.90;;;;;;5021334;28;20409;-96
2022/09/24 13:54:14;;;;;;;;;;;14.30;99.90;;;;;;5036141;28;19944;-96
2022/09/24 13:56:40;;;;;;;;;;;14.30;99.90;;;;;;5037992;28;19926;-96
2022/09/24 13:59:13;;;;;;;;;;;14.20;99.90;;;;;;5022086;28;19956;-95
2022/09/24 14:01:40;;;;;;;;;;;14.10;99.90;;;;;;5024366;28;19925;-95
2022/09/24 14:04:13;;;;;;;;;;;14.10;99.90;;;;;;5026630;28;19926;-96
2022/09/24 14:06:48;;;;;;;;;;;14.10;99.90;;;;;;5026227;28;20343;-95
2022/09/24 14:09:26;;;;;;;;;;;14.00;99.90;;;;;;5040328;28;19928;-93
2022/09/24 14:11:59;;;;;;;;;;;14.00;99.90;;;;;;5027892;28;19925;-94
2022/09/24 14:14:26;;;;;;;;;;;14.00;99.90;;;;;;5039056;28;20028;-94
2022/09/24 14:16:56;;;;;;;;;;;14.00;99.90;;;;;;5043527;28;19925;-95
2022/09/24 14:19:27;;;;;;;;;;;14.00;99.90;;;;;;5042712;28;20361;-93
2022/09/24 14:21:56;;;;;;;;;;;14.10;99.90;;;;;;5025826;28;19925;-93
2022/09/24 14:24:21;;;;;;;;;;;14.00;99.90;;;;;;5027003;28;19925;-95
2022/09/24 14:27:02;;;;;;;;;;;14.00;99.90;;;;;;5025523;28;19971;-95
2022/09/24 14:29:38;;;;;;;;;;;14.00;99.90;;;;;;5041195;28;19940;-95
2022/09/24 14:32:05;;;;;;;;;;;14.00;99.90;;;;;;5039172;28;21052;-94
2022/09/24 14:34:38;;;;;;;;;;;13.90;99.90;;;;;;5027703;28;20020;-94
2022/09/24 14:37:19;;;;;;;;;;;13.90;99.90;;;;;;5043745;28;19971;-94
2022/09/24 14:39:46;;;;;;;;;;;14.00;99.90;;;;;;5026317;28;20012;-93
2022/09/24 14:42:25;;;;;;;;;;;14.00;99.90;;;;;;5028078;28;19972;-94
2022/09/24 14:44:51;;;;;;;;;;;13.90;99.90;;;;;;5027977;28;20224;-95
2022/09/24 14:47:36;;;;;;;;;;;13.90;99.90;;;;;;5025611;28;19932;-94
2022/09/24 14:50:03;;;;;;;;;;;14.00;99.90;;;;;;5023959;28;19984;-94
2022/09/24 14:52:34;;;;;;;;;;;14.00;99.90;;;;;;5018410;28;20015;-95
2022/09/24 14:55:14;;;;;;;;;;;14.00;99.90;;;;;;5030949;28;19921;-93
2022/09/24 14:57:41;;;;;;;;;;;13.90;99.90;;;;;;5034708;28;19933;-95
2022/09/24 15:00:24;;;;;;;;;;;13.90;99.90;;;;;;5031421;28;20289;-94
2022/09/24 15:02:56;;;;;;;;;;;13.80;99.90;;;;;;5028340;28;19926;-95
2022/09/24 15:05:23;;;;;;;;;;;13.80;99.90;;;;;;5029886;28;20007;-93
2022/09/24 15:08:14;;;;;;;;;;;13.80;99.90;;;;;;5026167;28;19987;-93
2022/09/24 15:10:41;;;;;;;;;;;13.70;99.90;;;;;;5027857;28;20420;-94
2022/09/24 15:13:11;;;;;;;;;;;13.70;99.90;;;;;;5031265;28;19933;-96
2022/09/24 15:15:40;;;;;;;;;;;13.60;99.90;;;;;;5041468;28;19925;-95
2022/09/24 15:18:09;;;;;;;;;;;13.50;99.90;;;;;;5027919;28;19964;-95
2022/09/24 15:20:35;;;;;;;;;;;13.40;99.90;;;;;;5025999;28;19929;-94
2022/09/24 15:23:04;;;;;;;;;;;13.40;99.90;;;;;;5045166;28;19929;-93
2022/09/24 15:25:30;;;;;;;;;;;13.30;99.90;;;;;;5010303;28;19929;-92
2022/09/24 15:27:55;;;;;;;;;;;13.30;99.90;;;;;;5010889;28;19956;-94
2022/09/24 15:30:21;;;;;;;;;;;13.20;99.90;;;;;;5022656;28;19925;-93
2022/09/24 15:32:48;;;;;;;;;;;13.30;99.90;;;;;;5010781;28;20353;-95
2022/09/24 15:35:14;;;;;;;;;;;13.30;99.90;;;;;;5044800;28;20016;-94
2022/09/24 15:37:40;;;;;;;;;;;13.30;99.90;;;;;;5042814;28;20328;-96
2022/09/24 15:40:19;;;;;;;;;;;13.30;99.90;;;;;;5026557;28;19964;-93
2022/09/24 15:42:45;;;;;;;;;;;13.30;99.90;;;;;;5022767;28;19929;-94
2022/09/24 15:45:15;;;;;;;;;;;13.30;99.90;;;;;;5026959;28;19932;-94
2022/09/24 15:47:40;;;;;;;;;;;13.50;99.90;;;;;;5022626;28;19925;-93
2022/09/24 15:50:07;;;;;;;;;;;13.50;99.90;;;;;;5024919;28;19993;-95
2022/09/24 15:52:42;;;;;;;;;;;13.50;99.90;;;;;;5042930;28;20008;-94
2022/09/24 15:55:12;;;;;;;;;;;13.40;99.90;;;;;;5030128;28;19925;-95
2022/09/24 15:57:38;;;;;;;;;;;13.50;99.90;;;;;;5043959;28;19925;-95
2022/09/24 16:00:03;;;;;;;;;;;13.40;99.90;;;;;;5025780;28;19971;-95
2022/09/24 16:02:30;;;;;;;;;;;13.40;99.90;;;;;;5018084;28;20294;-95
2022/09/24 16:04:57;;;;;;;;;;;13.40;99.90;;;;;;5026628;28;19932;-94
2022/09/24 16:07:23;;;;;;;;;;;13.40;99.90;;;;;;5025875;28;19931;-94
2022/09/24 16:09:50;;;;;;;;;;;13.40;99.90;;;;;;5024151;28;19926;-95
2022/09/24 16:12:16;;;;;;;;;;;13.40;99.90;;;;;;5037530;28;19979;-95
2022/09/24 16:14:41;;;;;;;;;;;13.40;99.90;;;;;;5044246;28;19925;-94
2022/09/24 16:17:07;;;;;;;;;;;13.40;99.90;;;;;;5034752;28;19943;-95
2022/09/24 16:19:32;;;;;;;;;;;13.50;99.90;;;;;;5023549;28;19921;-95
2022/09/24 16:21:58;;;;;;;;;;;13.50;99.90;;;;;;5038578;28;19975;-95
2022/09/24 16:24:24;;;;;;;;;;;13.50;99.90;;;;;;5026820;28;19933;-94
2022/09/24 16:26:50;;;;;;;;;;;13.50;99.90;;;;;;5026311;28;19944;-96
2022/09/24 16:29:17;;;;;;;;;;;13.50;99.90;;;;;;5041859;28;19980;-95
2022/09/24 16:31:45;;;;;;;;;;;13.50;99.90;;;;;;5025649;28;19948;-94
2022/09/24 16:34:11;;;;;;;;;;;13.60;99.90;;;;;;5002894;28;20004;-96
2022/09/24 16:36:37;;;;;;;;;;;13.60;99.90;;;;;;5024456;28;19925;-95
2022/09/24 16:39:02;;;;;;;;;;;13.60;99.90;;;;;;5025455;28;19979;-95
2022/09/24 16:41:33;;;;;;;;;;;13.60;99.90;;;;;;5025267;28;19932;-95
2022/09/24 16:43:59;;;;;;;;;;;13.60;99.90;;;;;;5028813;28;20359;-95
2022/09/24 16:46:30;;;;;;;;;;;13.60;99.90;;;;;;5008208;28;19929;-94
2022/09/24 16:48:59;;;;;;;;;;;13.60;99.90;;;;;;5031357;28;20288;-93
2022/09/24 16:51:25;;;;;;;;;;;13.60;99.90;;;;;;5024059;28;19964;-93
2022/09/24 16:53:54;;;;;;;;;;;13.70;99.90;;;;;;5029477;28;19924;-93
2022/09/24 16:56:20;;;;;;;;;;;13.70;99.90;;;;;;5044900;28;19936;-92
2022/09/24 16:58:46;;;;;;;;;;;13.60;99.90;;;;;;5012637;28;19925;-94
2022/09/24 17:01:12;;;;;;;;;;;13.70;99.90;;;;;;5008650;28;19925;-92
2022/09/24 17:03:39;;;;;;;;;;;13.60;99.90;;;;;;5034977;28;19930;-92
2022/09/24 17:06:05;;;;;;;;;;;13.60;99.90;;;;;;5024423;28;19983;-94
2022/09/24 17:11:16;;;;;;;;;;;13.50;99.90;;;;;;5038503;28;20023;-92
2022/09/24 17:13:42;;;;;;;;;;;13.40;99.90;;;;;;5043897;28;19924;-94
2022/09/24 17:16:07;;;;;;;;;;;13.50;99.90;;;;;;5038865;28;19925;-96
2022/09/24 17:18:33;;;;;;;;;;;13.40;99.90;;;;;;5028491;28;20442;-93
2022/09/24 17:21:02;;;;;;;;;;;13.40;99.90;;;;;;5029263;28;19975;-94
2022/09/24 17:23:28;;;;;;;;;;;13.30;99.90;;;;;;5045394;28;20341;-95
2022/09/24 17:26:00;;;;;;;;;;;13.20;99.90;;;;;;5024166;28;19929;-94
2022/09/24 17:28:26;;;;;;;;;;;13.20;99.90;;;;;;5019927;28;19925;-95
2022/09/24 17:30:52;;;;;;;;;;;13.20;99.90;;;;;;5010866;28;19929;-94
2022/09/24 17:33:17;;;;;;;;;;;13.10;99.90;;;;;;5028287;28;19936;-93
2022/09/24 17:35:52;;;;;;;;;;;13.10;99.90;;;;;;5011800;28;19936;-93
2022/09/24 17:38:17;;;;;;;;;;;13.10;99.90;;;;;;5044728;28;19999;-95
2022/09/24 17:40:51;;;;;;;;;;;13.00;99.90;;;;;;5038135;28;19920;-94
2022/09/24 17:43:17;;;;;;;;;;;13.00;99.90;;;;;;5035729;28;19921;-94
2022/09/24 17:45:42;;;;;;;;;;;12.90;99.90;;;;;;5039126;28;19925;-95
2022/09/24 17:48:08;;;;;;;;;;;12.90;99.90;;;;;;5011337;28;20003;-93
2022/09/24 17:50:34;;;;;;;;;;;12.90;99.90;;;;;;5027294;28;19951;-93
2022/09/24 17:53:02;;;;;;;;;;;12.80;99.90;;;;;;5027563;28;20027;-92
2022/09/24 17:55:28;;;;;;;;;;;12.80;99.90;;;;;;5027675;28;19925;-94
2022/09/24 17:57:53;;;;;;;;;;;12.80;99.90;;;;;;5035664;28;20318;-94
2022/09/24 18:00:19;;;;;;;;;;;13.00;99.90;;;;;;5022542;28;19932;-94